createdAt,value
2018-12-12T00:00:54.107Z,12.30
2018-12-12T00:01:54.106Z,10.50
2018-12-12T00:02:54.298Z,9.20
2018-12-12T00:03:54.105Z,8.80
2018-12-12T00:04:54.093Z,8.80
2018-12-12T00:05:54.099Z,11.00
2018-12-12T00:06:54.069Z,10.60
2018-12-12T00:07:54.079Z,10.80
2018-12-12T00:08:54.057Z,10.90
2018-12-12T00:09:54.256Z,9.60
2018-12-12T00:10:54.048Z,10.80
2018-12-12T00:11:54.054Z,9.90
2018-12-12T00:12:54.039Z,11.80
2018-12-12T00:13:54.054Z,11.60
2018-12-12T00:14:54.224Z,12.70
2018-12-12T00:15:54.018Z,11.50
2018-12-12T00:16:54.008Z,13.40
2018-12-12T00:17:54.218Z,15.30
2018-12-12T00:18:54.201Z,14.20
2018-12-12T00:19:54.004Z,15.10
2018-12-12T00:20:54.223Z,16.60
2018-12-12T00:21:53.996Z,13.20
2018-12-12T00:22:54.182Z,10.90
2018-12-12T00:23:53.973Z,11.20
2018-12-12T00:24:54.169Z,10.90
2018-12-12T00:25:54.182Z,10.80
2018-12-12T00:26:53.970Z,9.10
2018-12-12T00:27:53.949Z,10.30
2018-12-12T00:28:53.946Z,10.50
2018-12-12T00:29:53.935Z,9.70
2018-12-12T00:30:53.944Z,9.70
2018-12-12T00:31:53.953Z,11.40
2018-12-12T00:32:53.923Z,10.80
2018-12-12T00:33:53.915Z,12.90
2018-12-12T00:34:53.915Z,11.80
2018-12-12T00:35:53.914Z,12.80
2018-12-12T00:36:53.899Z,14.20
2018-12-12T00:37:53.892Z,15.10
2018-12-12T00:38:53.893Z,12.50
2018-12-12T00:39:53.874Z,13.80
2018-12-12T00:40:54.067Z,13.90
2018-12-12T00:41:53.857Z,13.50
2018-12-12T00:42:54.057Z,15.60
2018-12-12T00:43:53.868Z,13.30
2018-12-12T00:44:53.858Z,18.00
2018-12-12T00:45:53.842Z,16.30
2018-12-12T00:46:53.834Z,12.80
2018-12-12T00:47:53.827Z,18.40
2018-12-12T00:48:53.818Z,13.50
2018-12-12T00:49:54.024Z,15.40
2018-12-12T00:50:54.021Z,18.50
2018-12-12T00:51:54.010Z,13.30
2018-12-12T00:52:53.797Z,16.70
2018-12-12T00:53:53.795Z,20.10
2018-12-12T00:54:53.786Z,15.90
2018-12-12T00:55:53.986Z,17.80
2018-12-12T00:56:53.992Z,15.90
2018-12-12T00:57:53.975Z,16.50
2018-12-12T00:58:53.960Z,18.90
2018-12-12T00:59:53.756Z,17.60
2018-12-12T01:00:53.959Z,16.60
2018-12-12T01:01:53.953Z,13.50
2018-12-12T01:02:53.741Z,17.70
2018-12-12T01:03:53.736Z,15.50
2018-12-12T01:04:53.745Z,16.50
2018-12-12T01:05:53.721Z,16.80
2018-12-12T01:06:53.711Z,15.70
2018-12-12T01:07:53.715Z,16.60
2018-12-12T01:08:53.711Z,16.60
2018-12-12T01:09:53.699Z,15.30
2018-12-12T01:10:53.903Z,17.70
2018-12-12T01:11:53.682Z,15.30
2018-12-12T01:12:53.694Z,15.70
2018-12-12T01:13:53.674Z,19.10
2018-12-12T01:14:53.687Z,17.40
2018-12-12T01:15:53.661Z,24.00
2018-12-12T01:16:53.668Z,19.10
2018-12-12T01:17:53.850Z,19.40
2018-12-12T01:18:53.646Z,23.30
2018-12-12T01:19:53.651Z,18.70
2018-12-12T01:20:53.634Z,18.30
2018-12-12T01:21:53.829Z,16.80
2018-12-12T01:22:53.633Z,18.50
2018-12-12T01:23:53.642Z,18.00
2018-12-12T01:24:53.811Z,19.50
2018-12-12T01:25:53.604Z,18.30
2018-12-12T01:26:53.811Z,15.10
2018-12-12T01:27:53.799Z,15.80
2018-12-12T01:28:53.581Z,17.00
2018-12-12T01:29:53.583Z,15.70
2018-12-12T01:30:53.573Z,15.90
2018-12-12T01:31:53.584Z,13.30
2018-12-12T01:32:53.573Z,15.70
2018-12-12T01:33:53.568Z,17.00
2018-12-12T01:34:53.574Z,17.60
2018-12-12T01:35:53.545Z,15.70
2018-12-12T01:36:53.536Z,18.60
2018-12-12T01:37:53.540Z,17.60
2018-12-12T01:38:53.544Z,18.30
2018-12-12T01:39:53.528Z,17.10
2018-12-12T01:40:53.726Z,15.90
2018-12-12T01:41:53.527Z,17.60
2018-12-12T01:42:53.533Z,15.90
2018-12-12T01:43:53.513Z,13.90
2018-12-12T01:44:53.712Z,14.40
2018-12-12T01:45:53.505Z,15.40
2018-12-12T01:46:53.535Z,16.30
2018-12-12T01:47:53.481Z,17.30
2018-12-12T01:48:53.474Z,12.90
2018-12-12T01:49:53.482Z,14.90
2018-12-12T01:50:53.466Z,17.00
2018-12-12T01:51:53.460Z,12.60
2018-12-12T01:52:53.455Z,13.90
2018-12-12T01:53:53.456Z,13.10
2018-12-12T01:54:53.458Z,12.30
2018-12-12T01:55:53.441Z,13.90
2018-12-12T01:56:53.430Z,14.40
2018-12-12T01:57:53.642Z,14.80
2018-12-12T01:58:53.418Z,13.00
2018-12-12T01:59:53.615Z,12.30
2018-12-12T02:00:53.402Z,12.40
2018-12-12T02:01:53.399Z,13.80
2018-12-12T02:02:53.391Z,11.10
2018-12-12T02:03:53.397Z,10.80
2018-12-12T02:04:53.377Z,10.70
2018-12-12T02:05:53.408Z,13.20
2018-12-12T02:06:53.377Z,12.90
2018-12-12T02:07:53.361Z,9.70
2018-12-12T02:08:53.362Z,10.30
2018-12-12T02:09:53.354Z,13.10
2018-12-12T02:10:53.346Z,10.90
2018-12-12T02:11:53.549Z,13.20
2018-12-12T02:12:53.344Z,11.40
2018-12-12T02:13:53.326Z,10.10
2018-12-12T02:14:53.321Z,10.90
2018-12-12T02:15:53.526Z,10.80
2018-12-12T02:16:53.321Z,11.30
2018-12-12T02:17:53.326Z,11.70
2018-12-12T02:18:53.299Z,10.80
2018-12-12T02:19:53.290Z,11.00
2018-12-12T02:20:53.291Z,12.80
2018-12-12T02:21:53.487Z,10.40
2018-12-12T02:22:53.277Z,11.40
2018-12-12T02:23:53.290Z,10.50
2018-12-12T02:24:53.264Z,11.40
2018-12-12T02:25:53.276Z,13.30
2018-12-12T02:26:53.251Z,12.40
2018-12-12T02:27:53.245Z,14.10
2018-12-12T02:28:53.236Z,14.30
2018-12-12T02:29:53.432Z,12.50
2018-12-12T02:30:53.221Z,13.10
2018-12-12T02:31:53.228Z,16.20
2018-12-12T02:32:53.213Z,14.70
2018-12-12T02:33:53.206Z,14.80
2018-12-12T02:34:53.217Z,12.00
2018-12-12T02:35:53.196Z,11.60
2018-12-12T02:36:53.421Z,12.90
2018-12-12T02:37:53.182Z,17.10
2018-12-12T02:38:53.191Z,12.20
2018-12-12T02:39:53.176Z,10.20
2018-12-12T02:40:53.175Z,11.20
2018-12-12T02:41:53.364Z,10.10
2018-12-12T02:42:53.370Z,11.60
2018-12-12T02:43:53.153Z,11.00
2018-12-12T02:44:53.149Z,13.70
2018-12-12T02:45:53.335Z,13.70
2018-12-12T02:46:53.141Z,12.10
2018-12-12T02:47:53.131Z,12.50
2018-12-12T02:48:53.115Z,13.30
2018-12-12T02:49:53.123Z,13.00
2018-12-12T02:50:53.117Z,12.40
2018-12-12T02:51:53.315Z,10.80
2018-12-12T02:52:53.117Z,12.90
2018-12-12T02:53:53.099Z,13.00
2018-12-12T02:54:53.088Z,13.00
2018-12-12T02:55:53.277Z,13.10
2018-12-12T02:56:53.283Z,16.30
2018-12-12T02:57:53.260Z,16.10
2018-12-12T02:58:53.057Z,17.70
2018-12-12T02:59:53.066Z,18.80
2018-12-12T03:00:53.062Z,17.30
2018-12-12T03:01:53.057Z,17.10
2018-12-12T03:02:53.037Z,15.90
2018-12-12T03:03:53.046Z,16.30
2018-12-12T03:04:53.023Z,15.90
2018-12-12T03:05:53.232Z,15.40
2018-12-12T03:06:53.024Z,12.90
2018-12-12T03:07:53.232Z,15.70
2018-12-12T03:08:53.007Z,13.90
2018-12-12T03:09:52.987Z,14.70
2018-12-12T03:10:53.004Z,18.10
2018-12-12T03:11:52.998Z,19.10
2018-12-12T03:12:52.977Z,19.40
2018-12-12T03:13:52.976Z,18.00
2018-12-12T03:14:52.962Z,17.20
2018-12-12T03:15:52.987Z,15.50
2018-12-12T03:16:52.959Z,18.80
2018-12-12T03:17:53.141Z,16.80
2018-12-12T03:18:52.961Z,19.10
2018-12-12T03:19:52.945Z,18.00
2018-12-12T03:20:52.930Z,20.90
2018-12-12T03:21:52.930Z,17.90
2018-12-12T03:22:52.915Z,18.30
2018-12-12T03:23:52.902Z,17.40
2018-12-12T03:24:53.114Z,18.80
2018-12-12T03:25:52.901Z,17.50
2018-12-12T03:26:52.892Z,18.30
2018-12-12T03:27:52.889Z,17.90
2018-12-12T03:28:52.881Z,19.80
2018-12-12T03:29:53.076Z,19.10
2018-12-12T03:30:52.876Z,19.90
2018-12-12T03:31:52.858Z,18.90
2018-12-12T03:32:52.864Z,14.40
2018-12-12T03:33:53.076Z,15.70
2018-12-12T03:34:52.859Z,16.00
2018-12-12T03:35:52.839Z,16.10
2018-12-12T03:36:52.828Z,15.20
2018-12-12T03:37:52.821Z,18.50
2018-12-12T03:38:52.816Z,17.90
2018-12-12T03:39:53.028Z,15.50
2018-12-12T03:40:53.037Z,18.30
2018-12-12T03:41:52.804Z,16.40
2018-12-12T03:42:52.999Z,15.40
2018-12-12T03:43:52.998Z,18.00
2018-12-12T03:44:52.994Z,17.60
2018-12-12T03:45:52.989Z,17.10
2018-12-12T03:46:52.770Z,18.90
2018-12-12T03:47:52.758Z,15.30
2018-12-12T03:48:52.750Z,15.50
2018-12-12T03:49:52.759Z,17.80
2018-12-12T03:50:52.753Z,16.70
2018-12-12T03:51:52.967Z,18.00
2018-12-12T03:52:52.937Z,18.90
2018-12-12T03:53:52.747Z,16.20
2018-12-12T03:54:52.720Z,18.90
2018-12-12T03:55:52.715Z,17.70
2018-12-12T03:56:52.716Z,19.60
2018-12-12T03:57:52.718Z,22.00
2018-12-12T03:58:52.896Z,18.10
2018-12-12T03:59:52.693Z,17.00
2018-12-12T04:00:52.684Z,17.40
2018-12-12T04:01:52.701Z,17.20
2018-12-12T04:02:52.679Z,16.90
2018-12-12T04:03:52.906Z,21.60
2018-12-12T04:04:52.670Z,17.60
2018-12-12T04:05:52.875Z,22.40
2018-12-12T04:06:52.677Z,23.30
2018-12-12T04:07:52.647Z,21.90
2018-12-12T04:08:52.851Z,24.10
2018-12-12T04:09:52.837Z,23.20
2018-12-12T04:10:52.828Z,21.50
2018-12-12T04:11:52.619Z,23.40
2018-12-12T04:12:52.614Z,21.60
2018-12-12T04:13:52.624Z,21.50
2018-12-12T04:14:52.603Z,21.70
2018-12-12T04:15:52.597Z,19.40
2018-12-12T04:16:52.601Z,22.00
2018-12-12T04:17:52.582Z,27.60
2018-12-12T04:18:52.585Z,19.60
2018-12-12T04:19:52.585Z,21.00
2018-12-12T04:20:52.568Z,18.10
2018-12-12T04:21:52.572Z,20.30
2018-12-12T04:22:52.559Z,24.20
2018-12-12T04:23:52.561Z,22.70
2018-12-12T04:24:52.539Z,20.20
2018-12-12T04:25:52.542Z,16.70
2018-12-12T04:26:52.533Z,16.20
2018-12-12T04:27:52.729Z,21.90
2018-12-12T04:28:52.522Z,18.90
2018-12-12T04:29:52.730Z,19.80
2018-12-12T04:30:52.506Z,24.80
2018-12-12T04:31:52.522Z,28.70
2018-12-12T04:32:52.500Z,21.80
2018-12-12T04:33:52.705Z,24.70
2018-12-12T04:34:52.484Z,20.10
2018-12-12T04:35:52.682Z,19.50
2018-12-12T04:36:52.476Z,23.50
2018-12-12T04:37:52.462Z,21.20
2018-12-12T04:38:52.467Z,21.50
2018-12-12T04:39:52.462Z,25.30
2018-12-12T04:40:52.461Z,27.60
2018-12-12T04:41:52.461Z,26.80
2018-12-12T04:42:52.443Z,26.50
2018-12-12T04:43:52.463Z,22.30
2018-12-12T04:44:52.431Z,23.70
2018-12-12T04:45:52.417Z,23.90
2018-12-12T04:46:52.424Z,22.00
2018-12-12T04:47:52.416Z,20.00
2018-12-12T04:48:52.406Z,20.80
2018-12-12T04:49:52.409Z,21.50
2018-12-12T04:50:52.399Z,21.20
2018-12-12T04:51:52.391Z,21.40
2018-12-12T04:52:52.392Z,23.10
2018-12-12T04:53:52.586Z,22.70
2018-12-12T04:54:52.378Z,24.00
2018-12-12T04:55:52.418Z,24.80
2018-12-12T04:56:52.366Z,24.70
2018-12-12T04:57:52.347Z,26.00
2018-12-12T04:58:52.566Z,27.40
2018-12-12T04:59:52.353Z,28.70
2018-12-12T05:00:52.344Z,27.30
2018-12-12T05:01:52.336Z,27.40
2018-12-12T05:02:52.524Z,29.80
2018-12-12T05:03:52.327Z,26.50
2018-12-12T05:04:52.327Z,20.80
2018-12-12T05:05:52.320Z,23.30
2018-12-12T05:06:52.300Z,24.60
2018-12-12T05:07:52.297Z,22.50
2018-12-12T05:08:52.326Z,20.80
2018-12-12T05:09:52.284Z,22.50
2018-12-12T05:10:52.281Z,22.50
2018-12-12T05:11:52.277Z,27.60
2018-12-12T05:12:52.338Z,25.30
2018-12-12T05:13:52.274Z,24.50
2018-12-12T05:14:52.269Z,26.20
2018-12-12T05:15:52.306Z,23.70
2018-12-12T05:16:52.448Z,26.10
2018-12-12T05:17:52.317Z,23.10
2018-12-12T05:18:52.231Z,20.00
2018-12-12T05:19:52.432Z,21.80
2018-12-12T05:20:52.231Z,21.70
2018-12-12T05:21:52.216Z,19.80
2018-12-12T05:22:52.412Z,19.10
2018-12-12T05:23:52.206Z,23.00
2018-12-12T05:24:52.219Z,21.60
2018-12-12T05:25:52.210Z,20.80
2018-12-12T05:26:52.211Z,22.20
2018-12-12T05:27:52.187Z,26.00
2018-12-12T05:28:52.186Z,24.70
2018-12-12T05:29:52.171Z,25.30
2018-12-12T05:30:52.169Z,23.60
2018-12-12T05:31:52.175Z,21.80
2018-12-12T05:32:52.172Z,21.80
2018-12-12T05:33:52.159Z,23.10
2018-12-12T05:34:52.173Z,23.60
2018-12-12T05:35:52.146Z,20.30
2018-12-12T05:36:52.153Z,20.40
2018-12-12T05:37:52.395Z,21.50
2018-12-12T05:38:52.127Z,19.90
2018-12-12T05:39:52.117Z,20.70
2018-12-12T05:40:52.121Z,22.40
2018-12-12T05:41:52.123Z,21.90
2018-12-12T05:42:52.124Z,19.40
2018-12-12T05:43:57.514Z,19.70
2018-12-12T05:44:52.111Z,17.90
2018-12-12T05:45:52.094Z,18.40
2018-12-12T05:46:52.086Z,17.20
2018-12-12T05:47:52.276Z,16.50
2018-12-12T05:48:52.081Z,17.60
2018-12-12T05:49:52.266Z,19.00
2018-12-12T05:50:52.263Z,20.30
2018-12-12T05:51:52.253Z,22.00
2018-12-12T05:52:52.061Z,23.90
2018-12-12T05:53:52.048Z,22.40
2018-12-12T05:54:52.242Z,23.60
2018-12-12T05:55:52.243Z,25.20
2018-12-12T05:56:52.431Z,26.30
2018-12-12T05:57:52.028Z,23.50
2018-12-12T05:58:52.020Z,22.00
2018-12-12T05:59:52.006Z,21.70
2018-12-12T06:00:52.006Z,23.30
2018-12-12T06:01:51.994Z,24.90
2018-12-12T06:02:52.191Z,25.00
2018-12-12T06:03:51.983Z,24.10
2018-12-12T06:04:51.982Z,24.00
2018-12-12T06:05:51.970Z,21.40
2018-12-12T06:06:52.193Z,22.80
2018-12-12T06:07:52.172Z,20.00
2018-12-12T06:08:52.155Z,22.50
2018-12-12T06:09:52.155Z,26.40
2018-12-12T06:10:51.959Z,29.20
2018-12-12T06:11:51.945Z,28.50
2018-12-12T06:12:51.934Z,26.70
2018-12-12T06:13:51.929Z,28.30
2018-12-12T06:14:51.932Z,28.20
2018-12-12T06:15:51.929Z,27.30
2018-12-12T06:16:51.921Z,28.40
2018-12-12T06:17:51.903Z,27.90
2018-12-12T06:18:51.908Z,32.80
2018-12-12T06:19:51.907Z,29.90
2018-12-12T06:20:51.900Z,29.30
2018-12-12T06:21:51.893Z,27.20
2018-12-12T06:22:51.888Z,29.00
2018-12-12T06:23:51.896Z,28.90
2018-12-12T06:24:51.876Z,29.00
2018-12-12T06:25:51.861Z,29.30
2018-12-12T06:26:51.857Z,30.90
2018-12-12T06:27:51.875Z,30.40
2018-12-12T06:28:52.044Z,30.20
2018-12-12T06:29:52.043Z,32.90
2018-12-12T06:30:51.840Z,31.60
2018-12-12T06:31:51.821Z,27.70
2018-12-12T06:32:51.811Z,28.50
2018-12-12T06:33:52.011Z,28.70
2018-12-12T06:34:51.806Z,26.80
2018-12-12T06:35:51.795Z,28.70
2018-12-12T06:36:51.789Z,25.30
2018-12-12T06:37:51.791Z,25.30
2018-12-12T06:38:51.776Z,25.20
2018-12-12T06:39:51.769Z,30.40
2018-12-12T06:40:51.768Z,26.40
2018-12-12T06:41:51.761Z,28.90
2018-12-12T06:42:51.754Z,27.40
2018-12-12T06:43:51.751Z,27.30
2018-12-12T06:44:51.755Z,26.10
2018-12-12T06:45:51.738Z,30.40
2018-12-12T06:46:51.731Z,33.60
2018-12-12T06:47:51.726Z,32.20
2018-12-12T06:48:51.731Z,32.00
2018-12-12T06:49:51.715Z,32.80
2018-12-12T06:50:51.703Z,37.20
2018-12-12T06:51:51.709Z,35.00
2018-12-12T06:52:51.690Z,35.80
2018-12-12T06:53:51.686Z,33.70
2018-12-12T06:54:51.691Z,35.70
2018-12-12T06:55:51.679Z,40.10
2018-12-12T06:56:51.668Z,36.80
2018-12-12T06:57:51.664Z,36.30
2018-12-12T06:58:51.671Z,34.50
2018-12-12T06:59:51.659Z,33.20
2018-12-12T07:00:51.648Z,32.40
2018-12-12T07:01:51.658Z,35.30
2018-12-12T07:02:51.646Z,34.60
2018-12-12T07:03:51.629Z,34.90
2018-12-12T07:04:51.618Z,34.00
2018-12-12T07:05:51.629Z,34.00
2018-12-12T07:06:51.604Z,34.30
2018-12-12T07:07:51.617Z,34.00
2018-12-12T07:08:52.063Z,33.60
2018-12-12T07:09:51.588Z,36.70
2018-12-12T07:10:51.591Z,35.10
2018-12-12T07:11:51.578Z,37.50
2018-12-12T07:12:51.585Z,36.10
2018-12-12T07:13:51.568Z,34.40
2018-12-12T07:14:51.560Z,34.20
2018-12-12T07:15:51.569Z,36.00
2018-12-12T07:16:51.557Z,35.80
2018-12-12T07:17:51.544Z,37.50
2018-12-12T07:18:51.534Z,33.50
2018-12-12T07:19:51.546Z,36.20
2018-12-12T07:20:51.520Z,33.60
2018-12-12T07:21:51.516Z,36.20
2018-12-12T07:22:51.515Z,35.70
2018-12-12T07:23:51.506Z,34.50
2018-12-12T07:24:51.515Z,37.00
2018-12-12T07:25:51.521Z,32.70
2018-12-12T07:26:51.497Z,32.90
2018-12-12T07:27:51.481Z,32.50
2018-12-12T07:28:51.479Z,34.40
2018-12-12T07:29:51.687Z,35.10
2018-12-12T07:30:51.465Z,40.40
2018-12-12T07:31:51.658Z,36.20
2018-12-12T07:32:51.449Z,36.60
2018-12-12T07:33:51.443Z,38.30
2018-12-12T07:34:51.454Z,43.60
2018-12-12T07:35:51.449Z,45.60
2018-12-12T07:36:51.433Z,42.60
2018-12-12T07:37:51.424Z,41.80
2018-12-12T07:38:51.418Z,43.80
2018-12-12T07:39:51.411Z,44.50
2018-12-12T07:40:51.418Z,45.90
2018-12-12T07:41:51.396Z,44.40
2018-12-12T07:42:51.396Z,44.70
2018-12-12T07:43:51.385Z,44.00
2018-12-12T07:44:51.400Z,40.70
2018-12-12T07:45:51.371Z,41.70
2018-12-12T07:46:51.374Z,45.10
2018-12-12T07:47:51.360Z,44.30
2018-12-12T07:48:51.346Z,44.30
2018-12-12T07:49:51.344Z,45.70
2018-12-12T07:50:51.353Z,44.40
2018-12-12T07:51:51.343Z,40.20
2018-12-12T07:52:51.347Z,38.40
2018-12-12T07:53:51.545Z,40.80
2018-12-12T07:54:51.314Z,47.90
2018-12-12T07:55:51.534Z,41.60
2018-12-12T07:56:51.309Z,39.40
2018-12-12T07:57:51.294Z,38.90
2018-12-12T07:58:51.300Z,44.80
2018-12-12T07:59:51.305Z,40.50
2018-12-12T08:00:51.282Z,41.10
2018-12-12T08:01:51.285Z,39.10
2018-12-12T08:02:51.280Z,37.80
2018-12-12T08:03:51.263Z,35.90
2018-12-12T08:04:51.252Z,34.20
2018-12-12T08:05:51.296Z,34.30
2018-12-12T08:06:51.240Z,36.90
2018-12-12T08:07:51.236Z,39.20
2018-12-12T08:08:51.461Z,40.10
2018-12-12T08:09:51.227Z,40.30
2018-12-12T08:10:51.220Z,40.50
2018-12-12T08:11:51.217Z,46.00
2018-12-12T08:12:51.213Z,42.60
2018-12-12T08:13:51.197Z,42.40
2018-12-12T08:14:51.204Z,43.20
2018-12-12T08:15:51.196Z,41.00
2018-12-12T08:16:51.194Z,41.00
2018-12-12T08:17:51.387Z,37.80
2018-12-12T08:18:51.190Z,39.80
2018-12-12T08:19:51.161Z,40.00
2018-12-12T08:20:51.384Z,40.10
2018-12-12T08:21:51.368Z,43.30
2018-12-12T08:22:51.146Z,37.80
2018-12-12T08:23:51.146Z,37.70
2018-12-12T08:24:51.135Z,38.50
2018-12-12T08:25:51.327Z,37.30
2018-12-12T08:26:51.132Z,41.70
2018-12-12T08:27:51.323Z,44.60
2018-12-12T08:28:51.109Z,37.50
2018-12-12T08:29:51.310Z,39.30
2018-12-12T08:30:51.119Z,38.70
2018-12-12T08:31:51.105Z,38.10
2018-12-12T08:32:51.098Z,37.80
2018-12-12T08:33:51.106Z,44.10
2018-12-12T08:34:51.079Z,42.30
2018-12-12T08:35:51.074Z,35.50
2018-12-12T08:36:51.084Z,40.00
2018-12-12T08:37:51.057Z,37.80
2018-12-12T08:38:51.070Z,43.30
2018-12-12T08:39:51.053Z,41.60
2018-12-12T08:40:51.069Z,41.80
2018-12-12T08:41:51.048Z,41.80
2018-12-12T08:42:51.049Z,44.40
2018-12-12T08:43:51.231Z,45.30
2018-12-12T08:44:51.224Z,40.90
2018-12-12T08:45:51.024Z,36.70
2018-12-12T08:46:51.018Z,41.90
2018-12-12T08:47:51.027Z,41.40
2018-12-12T08:48:51.214Z,42.50
2018-12-12T08:49:51.191Z,45.00
2018-12-12T08:50:51.000Z,40.30
2018-12-12T08:51:50.997Z,41.40
2018-12-12T08:52:50.973Z,39.30
2018-12-12T08:53:51.001Z,40.60
2018-12-12T08:55:51.165Z,38.90
2018-12-12T08:56:50.951Z,40.80
2018-12-12T08:57:50.959Z,38.20
2018-12-12T08:58:50.940Z,38.70
2018-12-12T08:59:50.938Z,39.30
2018-12-12T09:00:51.132Z,37.10
2018-12-12T09:01:51.156Z,38.70
2018-12-12T09:02:51.145Z,38.30
2018-12-12T09:03:51.124Z,36.20
2018-12-12T09:04:50.924Z,39.20
2018-12-12T09:05:50.918Z,38.50
2018-12-12T09:06:50.903Z,39.30
2018-12-12T09:07:50.927Z,38.10
2018-12-12T09:08:50.902Z,34.70
2018-12-12T09:09:50.880Z,41.50
2018-12-12T09:10:50.884Z,39.40
2018-12-12T09:11:50.872Z,34.10
2018-12-12T09:12:50.893Z,35.10
2018-12-12T09:13:50.870Z,38.10
2018-12-12T09:14:50.871Z,35.10
2018-12-12T09:15:50.857Z,34.50
2018-12-12T09:16:50.853Z,36.20
2018-12-12T09:17:50.838Z,36.50
2018-12-12T09:18:50.860Z,35.90
2018-12-12T09:19:50.855Z,35.60
2018-12-12T09:20:50.827Z,36.10
2018-12-12T09:21:50.831Z,36.60
2018-12-12T09:22:50.815Z,34.70
2018-12-12T09:23:50.803Z,34.00
2018-12-12T09:24:50.813Z,35.40
2018-12-12T09:25:50.999Z,35.40
2018-12-12T09:26:50.824Z,36.80
2018-12-12T09:27:50.797Z,35.70
2018-12-12T09:28:50.775Z,33.80
2018-12-12T09:29:50.791Z,33.40
2018-12-12T09:30:50.775Z,34.20
2018-12-12T09:31:50.775Z,37.30
2018-12-12T09:32:50.965Z,36.40
2018-12-12T09:33:50.762Z,36.00
2018-12-12T09:34:50.955Z,36.10
2018-12-12T09:35:50.755Z,32.00
2018-12-12T09:36:50.754Z,34.80
2018-12-12T09:37:50.746Z,32.10
2018-12-12T09:38:50.738Z,32.40
2018-12-12T09:39:50.732Z,31.90
2018-12-12T09:40:50.723Z,32.00
2018-12-12T09:41:50.732Z,29.00
2018-12-12T09:42:50.713Z,33.30
2018-12-12T09:43:50.904Z,33.60
2018-12-12T09:44:50.926Z,29.00
2018-12-12T09:45:50.711Z,28.90
2018-12-12T09:46:50.690Z,34.00
2018-12-12T09:47:50.693Z,27.90
2018-12-12T09:48:50.681Z,32.50
2018-12-12T09:49:50.687Z,32.30
2018-12-12T09:50:50.882Z,34.10
2018-12-12T09:51:50.667Z,27.80
2018-12-12T09:52:50.660Z,32.00
2018-12-12T09:53:50.846Z,32.40
2018-12-12T09:54:50.857Z,34.70
2018-12-12T09:55:50.637Z,30.00
2018-12-12T09:56:50.851Z,28.80
2018-12-12T09:57:50.640Z,30.00
2018-12-12T09:58:50.643Z,29.90
2018-12-12T09:59:50.635Z,31.30
2018-12-12T10:00:50.619Z,30.30
2018-12-12T10:01:50.609Z,30.50
2018-12-12T10:02:50.605Z,28.70
2018-12-12T10:03:50.605Z,29.80
2018-12-12T10:04:50.796Z,28.20
2018-12-12T10:05:50.595Z,28.40
2018-12-12T10:06:50.597Z,26.90
2018-12-12T10:07:50.595Z,27.30
2018-12-12T10:08:50.572Z,28.90
2018-12-12T10:09:50.580Z,25.10
2018-12-12T10:10:50.577Z,24.30
2018-12-12T10:11:50.776Z,28.20
2018-12-12T10:12:50.577Z,26.30
2018-12-12T10:13:50.759Z,24.10
2018-12-12T10:14:50.555Z,25.30
2018-12-12T10:15:50.757Z,19.80
2018-12-12T10:16:50.563Z,15.90
2018-12-12T10:17:50.726Z,15.10
2018-12-12T10:18:50.535Z,18.10
2018-12-12T10:19:50.513Z,17.70
2018-12-12T10:20:50.511Z,16.00
2018-12-12T10:21:50.508Z,12.60
2018-12-12T10:22:50.500Z,13.30
2018-12-12T10:23:50.713Z,13.60
2018-12-12T10:24:50.507Z,16.40
2018-12-12T10:25:50.487Z,16.60
2018-12-12T10:26:50.478Z,19.30
2018-12-12T10:27:50.687Z,18.70
2018-12-12T10:28:50.478Z,42.40
2018-12-12T10:29:50.475Z,25.60
2018-12-12T10:30:50.459Z,27.80
2018-12-12T10:31:50.469Z,24.70
2018-12-12T10:32:50.658Z,26.20
2018-12-12T10:33:50.452Z,22.00
2018-12-12T10:34:50.468Z,21.70
2018-12-12T10:35:50.657Z,18.60
2018-12-12T10:36:50.637Z,19.50
2018-12-12T10:37:50.420Z,17.80
2018-12-12T10:38:50.650Z,16.60
2018-12-12T10:39:50.612Z,17.80
2018-12-12T10:40:50.414Z,16.60
2018-12-12T10:41:50.426Z,20.70
2018-12-12T10:42:50.411Z,17.60
2018-12-12T10:43:50.394Z,16.40
2018-12-12T10:44:50.587Z,15.90
2018-12-12T10:45:50.413Z,16.40
2018-12-12T10:46:50.390Z,18.50
2018-12-12T10:47:50.391Z,17.20
2018-12-12T10:48:50.381Z,17.10
2018-12-12T10:49:50.571Z,17.20
2018-12-12T10:50:50.355Z,17.40
2018-12-12T10:51:50.577Z,16.80
2018-12-12T10:52:50.350Z,14.00
2018-12-12T10:53:50.426Z,14.40
2018-12-12T10:54:50.338Z,15.00
2018-12-12T10:55:50.335Z,15.80
2018-12-12T10:56:50.336Z,18.70
2018-12-12T10:57:50.336Z,15.20
2018-12-12T10:58:50.332Z,15.80
2018-12-12T10:59:50.327Z,17.00
2018-12-12T11:00:50.315Z,14.30
2018-12-12T11:01:50.310Z,13.60
2018-12-12T11:02:50.517Z,13.10
2018-12-12T11:03:50.311Z,15.30
2018-12-12T11:04:50.287Z,14.40
2018-12-12T11:05:50.295Z,14.60
2018-12-12T11:06:50.288Z,14.70
2018-12-12T11:07:50.292Z,15.10
2018-12-12T11:08:50.272Z,14.40
2018-12-12T11:09:50.484Z,13.80
2018-12-12T11:10:50.464Z,12.80
2018-12-12T11:11:50.276Z,12.40
2018-12-12T11:12:50.466Z,13.80
2018-12-12T11:13:50.255Z,13.80
2018-12-12T11:14:50.252Z,12.60
2018-12-12T11:15:50.436Z,12.00
2018-12-12T11:16:50.242Z,12.20
2018-12-12T11:17:50.226Z,11.00
2018-12-12T11:18:50.230Z,10.90
2018-12-12T11:19:50.217Z,10.80
2018-12-12T11:20:50.216Z,8.80
2018-12-12T11:21:50.208Z,9.50
2018-12-12T11:22:50.215Z,10.50
2018-12-12T11:23:50.208Z,8.80
2018-12-12T11:24:50.196Z,8.80
2018-12-12T11:25:50.190Z,8.20
2018-12-12T11:26:50.183Z,9.20
2018-12-12T11:27:50.192Z,10.50
2018-12-12T11:28:50.169Z,9.70
2018-12-12T11:29:50.165Z,10.10
2018-12-12T11:30:50.177Z,10.30
2018-12-12T11:31:50.156Z,9.20
2018-12-12T11:32:50.149Z,9.80
2018-12-12T11:33:50.697Z,10.20
2018-12-12T11:34:50.154Z,10.40
2018-12-12T11:35:50.148Z,10.30
2018-12-12T11:36:50.143Z,9.10
2018-12-12T11:37:50.130Z,9.00
2018-12-12T11:38:50.159Z,9.80
2018-12-12T11:39:50.127Z,8.30
2018-12-12T11:40:50.333Z,9.30
2018-12-12T11:41:50.472Z,9.50
2018-12-12T11:42:50.106Z,8.80
2018-12-12T11:43:50.304Z,9.80
2018-12-12T11:44:50.297Z,7.90
2018-12-12T11:45:50.116Z,6.70
2018-12-12T11:46:50.091Z,6.00
2018-12-12T11:47:50.097Z,5.80
2018-12-12T11:48:50.095Z,6.90
2018-12-12T11:49:50.081Z,6.60
2018-12-12T11:50:50.082Z,7.30
2018-12-12T11:51:50.067Z,7.60
2018-12-12T11:52:50.064Z,7.20
2018-12-12T11:53:50.065Z,7.60
2018-12-12T11:54:50.257Z,8.50
2018-12-12T11:55:50.039Z,7.20
2018-12-12T11:56:50.239Z,6.50
2018-12-12T11:57:50.047Z,6.80
2018-12-12T11:58:50.033Z,6.90
2018-12-12T11:59:50.048Z,6.90
2018-12-12T12:00:50.219Z,7.20
2018-12-12T12:01:50.047Z,6.40
2018-12-12T12:02:50.214Z,7.50
2018-12-12T12:03:50.022Z,7.10
2018-12-12T12:04:50.003Z,6.60
2018-12-12T12:05:50.007Z,7.80
2018-12-12T12:06:50.004Z,6.80
2018-12-12T12:07:49.999Z,7.70
2018-12-12T12:08:50.010Z,7.60
2018-12-12T12:09:49.990Z,7.30
2018-12-12T12:10:49.969Z,7.90
2018-12-12T12:11:49.982Z,9.50
2018-12-12T12:12:49.963Z,7.90
2018-12-12T12:13:49.983Z,8.30
2018-12-12T12:14:49.967Z,8.70
2018-12-12T12:15:49.962Z,8.40
2018-12-12T12:16:49.959Z,9.10
2018-12-12T12:17:49.940Z,9.70
2018-12-12T12:18:49.932Z,9.20
2018-12-12T12:19:49.942Z,9.30
2018-12-12T12:20:49.936Z,9.80
2018-12-12T12:21:49.930Z,9.10
2018-12-12T12:22:49.915Z,8.10
2018-12-12T12:23:49.914Z,8.90
2018-12-12T12:24:49.905Z,9.10
2018-12-12T12:25:49.894Z,10.20
2018-12-12T12:26:49.892Z,8.90
2018-12-12T12:27:49.902Z,9.50
2018-12-12T12:28:49.893Z,10.60
2018-12-12T12:29:49.881Z,10.20
2018-12-12T12:30:49.871Z,11.00
2018-12-12T12:31:49.880Z,11.20
2018-12-12T12:32:50.068Z,11.80
2018-12-12T12:33:50.067Z,12.70
2018-12-12T12:34:50.054Z,12.60
2018-12-12T12:35:49.858Z,11.70
2018-12-12T12:36:50.061Z,12.30
2018-12-12T12:37:49.841Z,13.00
2018-12-12T12:38:49.851Z,13.30
2018-12-12T12:39:49.831Z,13.80
2018-12-12T12:40:49.827Z,14.40
2018-12-12T12:41:49.852Z,13.40
2018-12-12T12:42:49.813Z,13.10
2018-12-12T12:43:49.821Z,13.80
2018-12-12T12:44:50.014Z,14.00
2018-12-12T12:45:49.803Z,12.40
2018-12-12T12:46:49.816Z,12.40
2018-12-12T12:47:49.791Z,13.10
2018-12-12T12:48:49.795Z,12.90
2018-12-12T12:49:49.780Z,12.50
2018-12-12T12:50:49.786Z,12.80
2018-12-12T12:51:49.768Z,12.00
2018-12-12T12:52:49.770Z,11.40
2018-12-12T12:53:49.775Z,11.90
2018-12-12T12:54:49.757Z,12.10
2018-12-12T12:55:49.766Z,12.50